Dennis, Kansas
Current Conditions -  °F | °C
As of 1:52 PM on Wednesday 26 Nov 2014 (Local Time) from KPPF Reporting Station
Broken Clouds Broken Clouds  
Wind Chill: 43°   Ceiling: 5500
Heat Index: 49°   Visibility: 10mi
Dew Point: 25°   Wind: 17mph
Humidity: 39%   Direction: 300°WNW
Pressure: 30.13"   Gusts: 30mph
Location:  37.35°N, 95.41°W
Report Text: KPPF 261952Z AUTO 30015G26KT 10SM BKN055 09/M04 A3013 RMK AO2 PK WND 31027/1903 SLP203 T00941039
Loading
Personal Weather Stations






























Interactive Weather Map New forecast layout! Learn more

10-Day Weather Forecast

Advertisements
Track Severe Weather on mobile